sensor_id;sensor_type;location;lat;lon;timestamp;P1;durP1;ratioP1;P2;durP2;ratioP2
42590;SDS011;28218;53.342;-6.216;2023-04-15T00:00:38;8.77;;;3.95;;
42590;SDS011;28218;53.342;-6.216;2023-04-15T00:03:06;7.28;;;3.53;;
42590;SDS011;28218;53.342;-6.216;2023-04-15T00:05:35;8.00;;;3.10;;
42590;SDS011;28218;53.342;-6.216;2023-04-15T00:08:03;8.30;;;2.60;;
42590;SDS011;28218;53.342;-6.216;2023-04-15T00:10:33;5.47;;;2.50;;
42590;SDS011;28218;53.342;-6.216;2023-04-15T00:13:01;7.20;;;2.25;;
42590;SDS011;28218;53.342;-6.216;2023-04-15T00:15:29;9.30;;;2.70;;
42590;SDS011;28218;53.342;-6.216;2023-04-15T00:17:58;7.85;;;2.60;;
42590;SDS011;28218;53.342;-6.216;2023-04-15T00:20:26;11.88;;;2.58;;
42590;SDS011;28218;53.342;-6.216;2023-04-15T00:22:55;8.00;;;2.20;;
42590;SDS011;28218;53.342;-6.216;2023-04-15T00:25:23;9.07;;;2.38;;
42590;SDS011;28218;53.342;-6.216;2023-04-15T00:27:53;7.20;;;2.00;;
42590;SDS011;28218;53.342;-6.216;2023-04-15T00:30:21;6.53;;;2.50;;
42590;SDS011;28218;53.342;-6.216;2023-04-15T00:32:49;13.45;;;2.53;;
42590;SDS011;28218;53.342;-6.216;2023-04-15T00:35:18;5.82;;;2.35;;
42590;SDS011;28218;53.342;-6.216;2023-04-15T00:37:46;7.88;;;2.25;;
42590;SDS011;28218;53.342;-6.216;2023-04-15T00:40:15;6.03;;;1.83;;
42590;SDS011;28218;53.342;-6.216;2023-04-15T00:42:45;4.05;;;1.80;;
42590;SDS011;28218;53.342;-6.216;2023-04-15T00:45:15;7.18;;;2.58;;
42590;SDS011;28218;53.342;-6.216;2023-04-15T00:47:43;7.05;;;2.13;;
42590;SDS011;28218;53.342;-6.216;2023-04-15T00:50:12;10.18;;;2.58;;
42590;SDS011;28218;53.342;-6.216;2023-04-15T00:52:40;10.45;;;1.77;;
42590;SDS011;28218;53.342;-6.216;2023-04-15T00:55:09;8.40;;;2.10;;
42590;SDS011;28218;53.342;-6.216;2023-04-15T00:57:38;11.80;;;2.75;;
42590;SDS011;28218;53.342;-6.216;2023-04-15T01:00:07;8.23;;;2.30;;
42590;SDS011;28218;53.342;-6.216;2023-04-15T01:02:39;8.77;;;2.43;;
42590;SDS011;28218;53.342;-6.216;2023-04-15T01:05:07;8.55;;;2.50;;
42590;SDS011;28218;53.342;-6.216;2023-04-15T01:07:36;7.55;;;2.60;;
42590;SDS011;28218;53.342;-6.216;2023-04-15T01:10:04;6.68;;;2.20;;
42590;SDS011;28218;53.342;-6.216;2023-04-15T01:12:33;12.40;;;2.35;;
42590;SDS011;28218;53.342;-6.216;2023-04-15T01:15:03;7.80;;;2.28;;
42590;SDS011;28218;53.342;-6.216;2023-04-15T01:17:32;7.35;;;2.13;;
42590;SDS011;28218;53.342;-6.216;2023-04-15T01:20:02;9.63;;;2.20;;
42590;SDS011;28218;53.342;-6.216;2023-04-15T01:22:31;8.33;;;2.57;;
42590;SDS011;28218;53.342;-6.216;2023-04-15T01:25:04;5.97;;;1.90;;
42590;SDS011;28218;53.342;-6.216;2023-04-15T01:27:37;13.02;;;2.67;;
42590;SDS011;28218;53.342;-6.216;2023-04-15T01:30:07;7.80;;;2.10;;
42590;SDS011;28218;53.342;-6.216;2023-04-15T01:32:37;8.32;;;2.20;;
42590;SDS011;28218;53.342;-6.216;2023-04-15T01:35:05;8.00;;;2.22;;
42590;SDS011;28218;53.342;-6.216;2023-04-15T01:37:34;4.57;;;2.13;;
42590;SDS011;28218;53.342;-6.216;2023-04-15T01:40:03;6.47;;;2.50;;
42590;SDS011;28218;53.342;-6.216;2023-04-15T01:42:34;9.60;;;2.65;;
42590;SDS011;28218;53.342;-6.216;2023-04-15T01:45:04;4.72;;;2.25;;
42590;SDS011;28218;53.342;-6.216;2023-04-15T01:47:33;9.45;;;2.95;;
42590;SDS011;28218;53.342;-6.216;2023-04-15T01:50:02;16.25;;;2.55;;
42590;SDS011;28218;53.342;-6.216;2023-04-15T01:52:30;12.75;;;2.60;;
42590;SDS011;28218;53.342;-6.216;2023-04-15T01:54:59;5.50;;;2.25;;
42590;SDS011;28218;53.342;-6.216;2023-04-15T01:57:27;8.25;;;2.30;;
42590;SDS011;28218;53.342;-6.216;2023-04-15T01:59:56;11.93;;;2.60;;
42590;SDS011;28218;53.342;-6.216;2023-04-15T02:02:25;8.25;;;2.70;;
42590;SDS011;28218;53.342;-6.216;2023-04-15T02:04:54;3.80;;;1.92;;
42590;SDS011;28218;53.342;-6.216;2023-04-15T02:07:22;8.00;;;2.63;;
42590;SDS011;28218;53.342;-6.216;2023-04-15T02:09:50;12.48;;;2.45;;
42590;SDS011;28218;53.342;-6.216;2023-04-15T02:12:19;8.00;;;2.03;;
42590;SDS011;28218;53.342;-6.216;2023-04-15T02:14:47;6.55;;;2.30;;
42590;SDS011;28218;53.342;-6.216;2023-04-15T02:17:15;11.68;;;3.38;;
42590;SDS011;28218;53.342;-6.216;2023-04-15T02:19:45;7.22;;;2.40;;
42590;SDS011;28218;53.342;-6.216;2023-04-15T02:22:14;6.13;;;2.83;;
42590;SDS011;28218;53.342;-6.216;2023-04-15T02:24:44;6.20;;;1.90;;
42590;SDS011;28218;53.342;-6.216;2023-04-15T02:27:14;12.02;;;2.45;;
42590;SDS011;28218;53.342;-6.216;2023-04-15T02:29:43;10.73;;;2.83;;
42590;SDS011;28218;53.342;-6.216;2023-04-15T02:32:12;9.90;;;2.05;;
42590;SDS011;28218;53.342;-6.216;2023-04-15T02:34:40;5.88;;;2.20;;
42590;SDS011;28218;53.342;-6.216;2023-04-15T02:37:11;6.15;;;2.15;;
42590;SDS011;28218;53.342;-6.216;2023-04-15T02:39:40;5.80;;;2.40;;
42590;SDS011;28218;53.342;-6.216;2023-04-15T02:42:08;9.20;;;2.40;;
42590;SDS011;28218;53.342;-6.216;2023-04-15T02:44:37;9.70;;;3.28;;
42590;SDS011;28218;53.342;-6.216;2023-04-15T02:47:05;5.00;;;2.05;;
42590;SDS011;28218;53.342;-6.216;2023-04-15T02:49:33;10.43;;;2.35;;
42590;SDS011;28218;53.342;-6.216;2023-04-15T02:52:02;7.00;;;2.40;;
42590;SDS011;28218;53.342;-6.216;2023-04-15T02:54:32;12.93;;;2.08;;
42590;SDS011;28218;53.342;-6.216;2023-04-15T02:57:01;6.13;;;1.98;;
42590;SDS011;28218;53.342;-6.216;2023-04-15T02:59:32;12.00;;;3.03;;
42590;SDS011;28218;53.342;-6.216;2023-04-15T03:02:00;5.07;;;2.20;;
42590;SDS011;28218;53.342;-6.216;2023-04-15T03:04:28;6.63;;;2.28;;
42590;SDS011;28218;53.342;-6.216;2023-04-15T03:06:57;8.00;;;2.63;;
42590;SDS011;28218;53.342;-6.216;2023-04-15T03:09:26;9.38;;;2.08;;
42590;SDS011;28218;53.342;-6.216;2023-04-15T03:11:55;6.38;;;2.10;;
42590;SDS011;28218;53.342;-6.216;2023-04-15T03:14:24;5.15;;;1.92;;
42590;SDS011;28218;53.342;-6.216;2023-04-15T03:16:52;6.28;;;1.90;;
42590;SDS011;28218;53.342;-6.216;2023-04-15T03:19:20;10.40;;;2.28;;
42590;SDS011;28218;53.342;-6.216;2023-04-15T03:21:48;10.23;;;1.95;;
42590;SDS011;28218;53.342;-6.216;2023-04-15T03:24:17;6.78;;;2.40;;
42590;SDS011;28218;53.342;-6.216;2023-04-15T03:26:45;5.80;;;2.17;;
42590;SDS011;28218;53.342;-6.216;2023-04-15T03:29:15;10.65;;;2.83;;
42590;SDS011;28218;53.342;-6.216;2023-04-15T03:31:43;6.28;;;2.08;;
42590;SDS011;28218;53.342;-6.216;2023-04-15T03:34:11;12.45;;;2.85;;
42590;SDS011;28218;53.342;-6.216;2023-04-15T03:36:40;7.68;;;2.42;;
42590;SDS011;28218;53.342;-6.216;2023-04-15T03:39:08;5.53;;;1.95;;
42590;SDS011;28218;53.342;-6.216;2023-04-15T03:41:36;7.32;;;2.17;;
42590;SDS011;28218;53.342;-6.216;2023-04-15T03:44:04;5.15;;;2.00;;
42590;SDS011;28218;53.342;-6.216;2023-04-15T03:46:34;7.07;;;2.20;;
42590;SDS011;28218;53.342;-6.216;2023-04-15T03:49:03;11.30;;;2.63;;
42590;SDS011;28218;53.342;-6.216;2023-04-15T03:51:33;7.57;;;2.17;;
42590;SDS011;28218;53.342;-6.216;2023-04-15T03:54:01;9.88;;;2.50;;
42590;SDS011;28218;53.342;-6.216;2023-04-15T03:56:30;11.35;;;2.20;;
42590;SDS011;28218;53.342;-6.216;2023-04-15T03:58:58;9.82;;;2.58;;
42590;SDS011;28218;53.342;-6.216;2023-04-15T04:01:27;6.07;;;2.20;;
42590;SDS011;28218;53.342;-6.216;2023-04-15T04:03:56;6.75;;;2.13;;
42590;SDS011;28218;53.342;-6.216;2023-04-15T04:06:25;6.22;;;1.92;;
42590;SDS011;28218;53.342;-6.216;2023-04-15T04:08:53;5.32;;;2.40;;
42590;SDS011;28218;53.342;-6.216;2023-04-15T04:11:22;7.10;;;2.28;;
42590;SDS011;28218;53.342;-6.216;2023-04-15T04:13:50;5.00;;;1.90;;
42590;SDS011;28218;53.342;-6.216;2023-04-15T04:16:18;10.65;;;2.35;;
42590;SDS011;28218;53.342;-6.216;2023-04-15T04:18:46;5.93;;;1.75;;
42590;SDS011;28218;53.342;-6.216;2023-04-15T04:21:17;8.10;;;2.15;;
42590;SDS011;28218;53.342;-6.216;2023-04-15T04:23:45;11.32;;;2.25;;
42590;SDS011;28218;53.342;-6.216;2023-04-15T04:26:13;4.38;;;2.10;;
42590;SDS011;28218;53.342;-6.216;2023-04-15T04:28:41;7.22;;;2.20;;
42590;SDS011;28218;53.342;-6.216;2023-04-15T04:31:09;4.50;;;2.88;;
42590;SDS011;28218;53.342;-6.216;2023-04-15T04:33:38;7.53;;;2.22;;
42590;SDS011;28218;53.342;-6.216;2023-04-15T04:36:07;9.18;;;2.42;;
42590;SDS011;28218;53.342;-6.216;2023-04-15T04:38:36;9.80;;;2.63;;
42590;SDS011;28218;53.342;-6.216;2023-04-15T04:41:04;10.65;;;2.15;;
42590;SDS011;28218;53.342;-6.216;2023-04-15T04:43:33;11.55;;;2.80;;
42590;SDS011;28218;53.342;-6.216;2023-04-15T04:46:01;8.15;;;2.70;;
42590;SDS011;28218;53.342;-6.216;2023-04-15T04:48:29;8.13;;;2.00;;
42590;SDS011;28218;53.342;-6.216;2023-04-15T04:50:58;5.80;;;2.30;;
42590;SDS011;28218;53.342;-6.216;2023-04-15T04:53:26;7.57;;;2.55;;
42590;SDS011;28218;53.342;-6.216;2023-04-15T04:55:56;12.13;;;2.90;;
42590;SDS011;28218;53.342;-6.216;2023-04-15T04:58:25;10.63;;;2.00;;
42590;SDS011;28218;53.342;-6.216;2023-04-15T05:00:53;9.55;;;2.47;;
42590;SDS011;28218;53.342;-6.216;2023-04-15T05:03:22;10.98;;;2.20;;
42590;SDS011;28218;53.342;-6.216;2023-04-15T05:05:50;7.38;;;1.77;;
42590;SDS011;28218;53.342;-6.216;2023-04-15T05:08:18;11.93;;;2.30;;
42590;SDS011;28218;53.342;-6.216;2023-04-15T05:10:47;12.32;;;2.42;;
42590;SDS011;28218;53.342;-6.216;2023-04-15T05:13:16;7.78;;;2.15;;
42590;SDS011;28218;53.342;-6.216;2023-04-15T05:15:44;6.13;;;2.10;;
42590;SDS011;28218;53.342;-6.216;2023-04-15T05:18:13;4.43;;;1.85;;
42590;SDS011;28218;53.342;-6.216;2023-04-15T05:20:41;12.57;;;2.90;;
42590;SDS011;28218;53.342;-6.216;2023-04-15T05:23:09;6.50;;;2.13;;
42590;SDS011;28218;53.342;-6.216;2023-04-15T05:25:38;7.82;;;2.45;;
42590;SDS011;28218;53.342;-6.216;2023-04-15T05:28:06;8.80;;;2.83;;
42590;SDS011;28218;53.342;-6.216;2023-04-15T05:30:36;9.25;;;2.90;;
42590;SDS011;28218;53.342;-6.216;2023-04-15T05:33:04;5.80;;;1.98;;
42590;SDS011;28218;53.342;-6.216;2023-04-15T05:35:33;11.88;;;2.65;;
42590;SDS011;28218;53.342;-6.216;2023-04-15T05:38:01;7.57;;;2.28;;
42590;SDS011;28218;53.342;-6.216;2023-04-15T05:40:30;9.32;;;2.50;;
42590;SDS011;28218;53.342;-6.216;2023-04-15T05:42:58;12.02;;;3.13;;
42590;SDS011;28218;53.342;-6.216;2023-04-15T05:45:26;7.57;;;2.55;;
42590;SDS011;28218;53.342;-6.216;2023-04-15T05:47:56;5.22;;;2.35;;
42590;SDS011;28218;53.342;-6.216;2023-04-15T05:50:24;8.27;;;2.80;;
42590;SDS011;28218;53.342;-6.216;2023-04-15T05:52:52;8.05;;;2.70;;
42590;SDS011;28218;53.342;-6.216;2023-04-15T05:55:21;4.53;;;2.20;;
42590;SDS011;28218;53.342;-6.216;2023-04-15T05:57:49;11.95;;;2.72;;
42590;SDS011;28218;53.342;-6.216;2023-04-15T06:00:17;7.00;;;2.08;;
42590;SDS011;28218;53.342;-6.216;2023-04-15T06:02:46;11.07;;;2.85;;
42590;SDS011;28218;53.342;-6.216;2023-04-15T06:05:16;19.40;;;3.05;;
42590;SDS011;28218;53.342;-6.216;2023-04-15T06:07:45;7.05;;;2.40;;
42590;SDS011;28218;53.342;-6.216;2023-04-15T06:10:14;12.50;;;2.92;;
42590;SDS011;28218;53.342;-6.216;2023-04-15T06:12:42;13.77;;;2.80;;
42590;SDS011;28218;53.342;-6.216;2023-04-15T06:15:10;9.48;;;2.40;;
42590;SDS011;28218;53.342;-6.216;2023-04-15T06:17:38;8.15;;;2.22;;
42590;SDS011;28218;53.342;-6.216;2023-04-15T06:20:07;12.50;;;3.17;;
42590;SDS011;28218;53.342;-6.216;2023-04-15T06:22:38;5.88;;;2.33;;
42590;SDS011;28218;53.342;-6.216;2023-04-15T06:25:06;8.65;;;2.63;;
42590;SDS011;28218;53.342;-6.216;2023-04-15T06:27:35;10.90;;;3.35;;
42590;SDS011;28218;53.342;-6.216;2023-04-15T06:30:03;12.82;;;2.47;;
42590;SDS011;28218;53.342;-6.216;2023-04-15T06:32:33;6.25;;;1.83;;
42590;SDS011;28218;53.342;-6.216;2023-04-15T06:35:01;11.57;;;3.88;;
42590;SDS011;28218;53.342;-6.216;2023-04-15T06:37:29;17.55;;;3.05;;
42590;SDS011;28218;53.342;-6.216;2023-04-15T06:39:59;16.88;;;2.25;;
42590;SDS011;28218;53.342;-6.216;2023-04-15T06:42:27;15.50;;;2.63;;
42590;SDS011;28218;53.342;-6.216;2023-04-15T06:44:55;10.63;;;2.63;;
42590;SDS011;28218;53.342;-6.216;2023-04-15T06:47:23;8.02;;;2.58;;
42590;SDS011;28218;53.342;-6.216;2023-04-15T06:49:52;9.77;;;2.45;;
42590;SDS011;28218;53.342;-6.216;2023-04-15T06:52:20;9.85;;;4.45;;
42590;SDS011;28218;53.342;-6.216;2023-04-15T06:54:48;11.20;;;2.90;;
42590;SDS011;28218;53.342;-6.216;2023-04-15T06:57:18;8.43;;;2.63;;
42590;SDS011;28218;53.342;-6.216;2023-04-15T06:59:46;13.13;;;2.78;;
42590;SDS011;28218;53.342;-6.216;2023-04-15T07:02:14;9.40;;;2.50;;
42590;SDS011;28218;53.342;-6.216;2023-04-15T07:04:43;13.90;;;2.53;;
42590;SDS011;28218;53.342;-6.216;2023-04-15T07:07:11;11.43;;;2.50;;
42590;SDS011;28218;53.342;-6.216;2023-04-15T07:09:39;7.65;;;2.72;;
42590;SDS011;28218;53.342;-6.216;2023-04-15T07:12:07;8.90;;;2.65;;
42590;SDS011;28218;53.342;-6.216;2023-04-15T07:14:37;11.50;;;2.83;;
42590;SDS011;28218;53.342;-6.216;2023-04-15T07:17:05;7.05;;;2.40;;
42590;SDS011;28218;53.342;-6.216;2023-04-15T07:19:33;12.07;;;2.78;;
42590;SDS011;28218;53.342;-6.216;2023-04-15T07:22:02;10.55;;;2.72;;
42590;SDS011;28218;53.342;-6.216;2023-04-15T07:24:30;7.03;;;2.13;;
42590;SDS011;28218;53.342;-6.216;2023-04-15T07:26:59;10.20;;;2.97;;
42590;SDS011;28218;53.342;-6.216;2023-04-15T07:29:27;6.50;;;2.28;;
42590;SDS011;28218;53.342;-6.216;2023-04-15T07:31:56;13.02;;;3.08;;
42590;SDS011;28218;53.342;-6.216;2023-04-15T07:34:24;4.40;;;2.15;;
42590;SDS011;28218;53.342;-6.216;2023-04-15T07:36:53;8.13;;;2.53;;
42590;SDS011;28218;53.342;-6.216;2023-04-15T07:39:21;4.55;;;1.95;;
42590;SDS011;28218;53.342;-6.216;2023-04-15T07:41:49;8.13;;;2.85;;
42590;SDS011;28218;53.342;-6.216;2023-04-15T07:44:18;6.65;;;2.30;;
42590;SDS011;28218;53.342;-6.216;2023-04-15T07:46:46;11.65;;;2.13;;
42590;SDS011;28218;53.342;-6.216;2023-04-15T07:49:16;10.52;;;2.83;;
42590;SDS011;28218;53.342;-6.216;2023-04-15T07:51:44;8.60;;;2.17;;
42590;SDS011;28218;53.342;-6.216;2023-04-15T07:54:13;6.70;;;1.60;;
42590;SDS011;28218;53.342;-6.216;2023-04-15T07:56:41;11.82;;;2.50;;
42590;SDS011;28218;53.342;-6.216;2023-04-15T07:59:09;6.63;;;2.17;;
42590;SDS011;28218;53.342;-6.216;2023-04-15T08:01:38;13.13;;;3.25;;
42590;SDS011;28218;53.342;-6.216;2023-04-15T08:04:06;9.25;;;3.47;;
42590;SDS011;28218;53.342;-6.216;2023-04-15T08:06:36;12.18;;;2.40;;
42590;SDS011;28218;53.342;-6.216;2023-04-15T08:09:05;6.72;;;2.10;;
42590;SDS011;28218;53.342;-6.216;2023-04-15T08:11:33;12.40;;;2.22;;
42590;SDS011;28218;53.342;-6.216;2023-04-15T08:14:02;2.95;;;1.60;;
42590;SDS011;28218;53.342;-6.216;2023-04-15T08:16:30;4.03;;;1.73;;
42590;SDS011;28218;53.342;-6.216;2023-04-15T08:18:58;11.23;;;2.13;;
42590;SDS011;28218;53.342;-6.216;2023-04-15T08:21:27;6.43;;;2.08;;
42590;SDS011;28218;53.342;-6.216;2023-04-15T08:23:57;5.00;;;2.20;;
42590;SDS011;28218;53.342;-6.216;2023-04-15T08:26:27;5.83;;;1.83;;
42590;SDS011;28218;53.342;-6.216;2023-04-15T08:28:55;6.22;;;2.45;;
42590;SDS011;28218;53.342;-6.216;2023-04-15T08:31:25;2.60;;;1.67;;
42590;SDS011;28218;53.342;-6.216;2023-04-15T08:33:55;5.22;;;2.05;;
42590;SDS011;28218;53.342;-6.216;2023-04-15T08:36:23;10.15;;;2.25;;
42590;SDS011;28218;53.342;-6.216;2023-04-15T08:38:52;14.50;;;1.92;;
42590;SDS011;28218;53.342;-6.216;2023-04-15T08:41:22;6.03;;;2.13;;
42590;SDS011;28218;53.342;-6.216;2023-04-15T08:43:52;4.73;;;1.50;;
42590;SDS011;28218;53.342;-6.216;2023-04-15T08:46:22;7.00;;;1.75;;
42590;SDS011;28218;53.342;-6.216;2023-04-15T08:48:51;8.27;;;1.60;;
42590;SDS011;28218;53.342;-6.216;2023-04-15T08:51:23;4.43;;;1.13;;
42590;SDS011;28218;53.342;-6.216;2023-04-15T08:53:52;4.20;;;1.67;;
42590;SDS011;28218;53.342;-6.216;2023-04-15T08:56:23;2.65;;;1.40;;
42590;SDS011;28218;53.342;-6.216;2023-04-15T08:58:53;18.67;;;1.90;;
42590;SDS011;28218;53.342;-6.216;2023-04-15T09:01:21;9.57;;;1.65;;
42590;SDS011;28218;53.342;-6.216;2023-04-15T09:03:50;8.52;;;1.17;;
42590;SDS011;28218;53.342;-6.216;2023-04-15T09:06:20;3.78;;;2.13;;
42590;SDS011;28218;53.342;-6.216;2023-04-15T09:08:48;5.60;;;1.77;;
42590;SDS011;28218;53.342;-6.216;2023-04-15T09:11:17;2.90;;;1.58;;
42590;SDS011;28218;53.342;-6.216;2023-04-15T09:13:47;5.40;;;1.98;;
42590;SDS011;28218;53.342;-6.216;2023-04-15T09:16:16;7.57;;;2.92;;
42590;SDS011;28218;53.342;-6.216;2023-04-15T09:18:44;4.65;;;1.90;;
42590;SDS011;28218;53.342;-6.216;2023-04-15T09:21:13;6.72;;;1.67;;
42590;SDS011;28218;53.342;-6.216;2023-04-15T09:23:52;3.35;;;1.30;;
42590;SDS011;28218;53.342;-6.216;2023-04-15T09:26:32;9.80;;;2.55;;
42590;SDS011;28218;53.342;-6.216;2023-04-15T09:29:05;6.78;;;1.88;;
42590;SDS011;28218;53.342;-6.216;2023-04-15T09:31:35;8.35;;;2.22;;
42590;SDS011;28218;53.342;-6.216;2023-04-15T09:34:04;3.17;;;1.50;;
42590;SDS011;28218;53.342;-6.216;2023-04-15T09:36:50;5.03;;;2.33;;
42590;SDS011;28218;53.342;-6.216;2023-04-15T09:39:20;3.88;;;1.60;;
42590;SDS011;28218;53.342;-6.216;2023-04-15T09:42:03;4.13;;;1.17;;
42590;SDS011;28218;53.342;-6.216;2023-04-15T09:44:35;3.90;;;1.63;;
42590;SDS011;28218;53.342;-6.216;2023-04-15T09:47:03;11.68;;;2.05;;
42590;SDS011;28218;53.342;-6.216;2023-04-15T09:49:31;7.35;;;1.67;;
42590;SDS011;28218;53.342;-6.216;2023-04-15T09:51:59;3.22;;;1.50;;
42590;SDS011;28218;53.342;-6.216;2023-04-15T09:54:32;2.90;;;1.25;;
42590;SDS011;28218;53.342;-6.216;2023-04-15T09:57:05;9.40;;;2.47;;
42590;SDS011;28218;53.342;-6.216;2023-04-15T09:59:37;2.25;;;1.30;;
42590;SDS011;28218;53.342;-6.216;2023-04-15T10:02:05;8.57;;;2.00;;
42590;SDS011;28218;53.342;-6.216;2023-04-15T10:04:34;2.03;;;1.40;;
42590;SDS011;28218;53.342;-6.216;2023-04-15T10:07:05;4.67;;;1.30;;
42590;SDS011;28218;53.342;-6.216;2023-04-15T10:09:35;2.53;;;0.68;;
42590;SDS011;28218;53.342;-6.216;2023-04-15T10:12:05;6.03;;;0.90;;
42590;SDS011;28218;53.342;-6.216;2023-04-15T10:14:33;7.78;;;1.23;;
42590;SDS011;28218;53.342;-6.216;2023-04-15T10:17:06;3.65;;;1.48;;
42590;SDS011;28218;53.342;-6.216;2023-04-15T10:19:37;2.22;;;1.23;;
42590;SDS011;28218;53.342;-6.216;2023-04-15T10:22:07;9.43;;;1.35;;
42590;SDS011;28218;53.342;-6.216;2023-04-15T10:24:36;3.70;;;1.35;;
42590;SDS011;28218;53.342;-6.216;2023-04-15T10:27:05;5.30;;;1.27;;
42590;SDS011;28218;53.342;-6.216;2023-04-15T10:29:34;7.65;;;2.63;;
42590;SDS011;28218;53.342;-6.216;2023-04-15T10:32:03;2.60;;;1.80;;
42590;SDS011;28218;53.342;-6.216;2023-04-15T10:34:33;7.85;;;2.47;;
42590;SDS011;28218;53.342;-6.216;2023-04-15T10:37:02;6.90;;;1.45;;
42590;SDS011;28218;53.342;-6.216;2023-04-15T10:39:37;3.50;;;1.50;;
42590;SDS011;28218;53.342;-6.216;2023-04-15T10:42:08;6.90;;;2.08;;
42590;SDS011;28218;53.342;-6.216;2023-04-15T10:44:38;8.57;;;1.70;;
42590;SDS011;28218;53.342;-6.216;2023-04-15T10:47:12;5.63;;;1.58;;
42590;SDS011;28218;53.342;-6.216;2023-04-15T10:49:43;4.60;;;1.45;;
42590;SDS011;28218;53.342;-6.216;2023-04-15T10:52:16;11.02;;;2.28;;
42590;SDS011;28218;53.342;-6.216;2023-04-15T10:54:45;5.50;;;1.40;;
42590;SDS011;28218;53.342;-6.216;2023-04-15T10:57:15;6.22;;;1.73;;
42590;SDS011;28218;53.342;-6.216;2023-04-15T11:02:39;6.57;;;1.80;;
42590;SDS011;28218;53.342;-6.216;2023-04-15T11:05:11;8.05;;;1.85;;
42590;SDS011;28218;53.342;-6.216;2023-04-15T11:07:40;2.80;;;0.98;;
42590;SDS011;28218;53.342;-6.216;2023-04-15T11:13:18;2.78;;;1.35;;
42590;SDS011;28218;53.342;-6.216;2023-04-15T11:15:49;5.22;;;1.58;;
42590;SDS011;28218;53.342;-6.216;2023-04-15T11:18:17;6.07;;;1.95;;
42590;SDS011;28218;53.342;-6.216;2023-04-15T11:20:49;4.75;;;1.90;;
42590;SDS011;28218;53.342;-6.216;2023-04-15T11:23:26;4.32;;;1.85;;
42590;SDS011;28218;53.342;-6.216;2023-04-15T11:25:55;4.20;;;2.10;;
42590;SDS011;28218;53.342;-6.216;2023-04-15T11:28:25;7.82;;;1.90;;
42590;SDS011;28218;53.342;-6.216;2023-04-15T11:30:54;6.75;;;1.88;;
42590;SDS011;28218;53.342;-6.216;2023-04-15T11:33:23;4.53;;;1.92;;
42590;SDS011;28218;53.342;-6.216;2023-04-15T11:35:54;4.88;;;1.95;;
42590;SDS011;28218;53.342;-6.216;2023-04-15T11:38:22;4.72;;;1.95;;
42590;SDS011;28218;53.342;-6.216;2023-04-15T11:40:50;5.20;;;2.00;;
42590;SDS011;28218;53.342;-6.216;2023-04-15T11:43:19;4.20;;;2.00;;
42590;SDS011;28218;53.342;-6.216;2023-04-15T11:45:52;5.68;;;1.50;;
42590;SDS011;28218;53.342;-6.216;2023-04-15T11:48:22;6.80;;;1.88;;
42590;SDS011;28218;53.342;-6.216;2023-04-15T11:50:56;6.82;;;1.85;;
42590;SDS011;28218;53.342;-6.216;2023-04-15T11:53:34;7.97;;;2.38;;
42590;SDS011;28218;53.342;-6.216;2023-04-15T11:56:05;2.53;;;1.67;;
42590;SDS011;28218;53.342;-6.216;2023-04-15T11:58:35;6.20;;;2.28;;
42590;SDS011;28218;53.342;-6.216;2023-04-15T12:01:05;6.05;;;1.80;;
42590;SDS011;28218;53.342;-6.216;2023-04-15T12:03:37;5.13;;;1.98;;
42590;SDS011;28218;53.342;-6.216;2023-04-15T12:06:11;7.90;;;2.78;;
42590;SDS011;28218;53.342;-6.216;2023-04-15T12:08:55;7.30;;;2.55;;
42590;SDS011;28218;53.342;-6.216;2023-04-15T12:11:43;5.97;;;2.00;;
42590;SDS011;28218;53.342;-6.216;2023-04-15T12:14:15;6.97;;;2.33;;
42590;SDS011;28218;53.342;-6.216;2023-04-15T12:16:45;10.10;;;2.53;;
42590;SDS011;28218;53.342;-6.216;2023-04-15T12:19:21;2.88;;;1.83;;
42590;SDS011;28218;53.342;-6.216;2023-04-15T12:21:53;3.42;;;1.70;;
42590;SDS011;28218;53.342;-6.216;2023-04-15T12:24:26;5.20;;;2.00;;
42590;SDS011;28218;53.342;-6.216;2023-04-15T12:26:55;9.65;;;2.60;;
42590;SDS011;28218;53.342;-6.216;2023-04-15T12:29:25;9.73;;;2.35;;
42590;SDS011;28218;53.342;-6.216;2023-04-15T12:31:55;7.40;;;2.47;;
42590;SDS011;28218;53.342;-6.216;2023-04-15T12:34:25;8.35;;;2.65;;
42590;SDS011;28218;53.342;-6.216;2023-04-15T12:36:56;5.22;;;2.45;;
42590;SDS011;28218;53.342;-6.216;2023-04-15T12:39:26;9.83;;;3.17;;
42590;SDS011;28218;53.342;-6.216;2023-04-15T12:41:57;11.00;;;2.35;;
42590;SDS011;28218;53.342;-6.216;2023-04-15T12:44:26;5.63;;;2.22;;
42590;SDS011;28218;53.342;-6.216;2023-04-15T12:46:54;2.33;;;1.33;;
42590;SDS011;28218;53.342;-6.216;2023-04-15T12:49:23;3.63;;;1.60;;
42590;SDS011;28218;53.342;-6.216;2023-04-15T12:51:52;3.50;;;1.40;;
42590;SDS011;28218;53.342;-6.216;2023-04-15T12:54:23;3.47;;;1.02;;
42590;SDS011;28218;53.342;-6.216;2023-04-15T12:56:52;4.05;;;1.60;;
42590;SDS011;28218;53.342;-6.216;2023-04-15T12:59:20;1.63;;;0.88;;
42590;SDS011;28218;53.342;-6.216;2023-04-15T13:01:50;3.53;;;1.13;;
42590;SDS011;28218;53.342;-6.216;2023-04-15T13:04:20;5.28;;;0.90;;
42590;SDS011;28218;53.342;-6.216;2023-04-15T13:06:48;3.42;;;1.02;;
42590;SDS011;28218;53.342;-6.216;2023-04-15T13:09:17;6.20;;;1.55;;
42590;SDS011;28218;53.342;-6.216;2023-04-15T13:11:46;13.93;;;6.25;;
42590;SDS011;28218;53.342;-6.216;2023-04-15T13:14:16;4.80;;;2.30;;
42590;SDS011;28218;53.342;-6.216;2023-04-15T13:16:44;4.35;;;1.20;;
42590;SDS011;28218;53.342;-6.216;2023-04-15T13:19:12;3.22;;;0.70;;
42590;SDS011;28218;53.342;-6.216;2023-04-15T13:21:41;4.00;;;0.68;;
42590;SDS011;28218;53.342;-6.216;2023-04-15T13:24:10;1.88;;;0.80;;
42590;SDS011;28218;53.342;-6.216;2023-04-15T13:26:39;4.40;;;0.80;;
42590;SDS011;28218;53.342;-6.216;2023-04-15T13:29:08;2.50;;;0.60;;
42590;SDS011;28218;53.342;-6.216;2023-04-15T13:31:37;3.83;;;0.85;;
42590;SDS011;28218;53.342;-6.216;2023-04-15T13:34:05;2.10;;;0.70;;
42590;SDS011;28218;53.342;-6.216;2023-04-15T13:36:34;2.65;;;0.60;;
42590;SDS011;28218;53.342;-6.216;2023-04-15T13:39:02;5.57;;;0.52;;
42590;SDS011;28218;53.342;-6.216;2023-04-15T13:41:30;5.55;;;0.82;;
42590;SDS011;28218;53.342;-6.216;2023-04-15T13:43:59;7.75;;;1.50;;
42590;SDS011;28218;53.342;-6.216;2023-04-15T13:46:28;4.28;;;0.70;;
42590;SDS011;28218;53.342;-6.216;2023-04-15T13:48:56;1.63;;;0.60;;
42590;SDS011;28218;53.342;-6.216;2023-04-15T13:51:25;2.35;;;0.60;;
42590;SDS011;28218;53.342;-6.216;2023-04-15T13:53:53;1.13;;;0.80;;
42590;SDS011;28218;53.342;-6.216;2023-04-15T13:56:23;4.10;;;0.80;;
42590;SDS011;28218;53.342;-6.216;2023-04-15T13:58:51;2.05;;;0.68;;
42590;SDS011;28218;53.342;-6.216;2023-04-15T14:01:20;1.08;;;0.70;;
42590;SDS011;28218;53.342;-6.216;2023-04-15T14:03:49;3.28;;;0.90;;
42590;SDS011;28218;53.342;-6.216;2023-04-15T14:06:18;2.90;;;0.75;;
42590;SDS011;28218;53.342;-6.216;2023-04-15T14:08:46;3.50;;;0.98;;
42590;SDS011;28218;53.342;-6.216;2023-04-15T14:11:14;7.10;;;1.63;;
42590;SDS011;28218;53.342;-6.216;2023-04-15T14:13:42;9.60;;;1.60;;
42590;SDS011;28218;53.342;-6.216;2023-04-15T14:16:11;3.53;;;1.13;;
42590;SDS011;28218;53.342;-6.216;2023-04-15T14:18:39;7.22;;;0.80;;
42590;SDS011;28218;53.342;-6.216;2023-04-15T14:21:09;4.70;;;0.90;;
42590;SDS011;28218;53.342;-6.216;2023-04-15T14:23:37;7.75;;;1.00;;
42590;SDS011;28218;53.342;-6.216;2023-04-15T14:26:05;5.47;;;1.10;;
42590;SDS011;28218;53.342;-6.216;2023-04-15T14:28:33;4.05;;;1.10;;
42590;SDS011;28218;53.342;-6.216;2023-04-15T14:31:04;2.38;;;0.75;;
42590;SDS011;28218;53.342;-6.216;2023-04-15T14:33:35;7.65;;;0.90;;
42590;SDS011;28218;53.342;-6.216;2023-04-15T14:36:03;6.35;;;0.98;;
42590;SDS011;28218;53.342;-6.216;2023-04-15T14:38:34;4.90;;;0.82;;
42590;SDS011;28218;53.342;-6.216;2023-04-15T14:41:04;5.55;;;1.67;;
42590;SDS011;28218;53.342;-6.216;2023-04-15T14:43:33;4.25;;;1.20;;
42590;SDS011;28218;53.342;-6.216;2023-04-15T14:46:01;4.15;;;1.00;;
42590;SDS011;28218;53.342;-6.216;2023-04-15T14:48:30;5.43;;;1.02;;